createdAt,value
2018-12-22T00:02:23.176Z,12.10
2018-12-22T00:04:51.295Z,12.10
2018-12-22T00:07:19.484Z,12.10
2018-12-22T00:09:47.849Z,12.10
2018-12-22T00:12:16.916Z,12.10
2018-12-22T00:14:45.101Z,12.10
2018-12-22T00:17:13.300Z,12.10
2018-12-22T00:19:41.571Z,12.10
2018-12-22T00:22:09.885Z,12.10
2018-12-22T00:24:38.238Z,12.10
2018-12-22T00:27:06.523Z,12.10
2018-12-22T00:29:34.828Z,12.20
2018-12-22T00:32:03.074Z,12.20
2018-12-22T00:34:31.378Z,12.20
2018-12-22T00:36:59.517Z,12.20
2018-12-22T00:39:27.868Z,12.10
2018-12-22T00:41:56.283Z,12.20
2018-12-22T00:44:24.360Z,12.20
2018-12-22T00:46:52.667Z,12.10
2018-12-22T00:49:21.104Z,12.20
2018-12-22T00:51:55.737Z,12.20
2018-12-22T00:54:24.120Z,12.20
2018-12-22T00:56:52.380Z,12.20
2018-12-22T00:59:20.574Z,12.20
2018-12-22T01:01:49.029Z,12.20
2018-12-22T01:04:17.326Z,12.20
2018-12-22T01:06:46.105Z,12.20
2018-12-22T01:09:14.538Z,12.20
2018-12-22T01:11:42.965Z,12.20
2018-12-22T01:14:11.170Z,12.20
2018-12-22T01:16:39.275Z,12.20
2018-12-22T01:19:07.567Z,12.20
2018-12-22T01:21:36.320Z,12.10
2018-12-22T01:24:04.456Z,12.00
2018-12-22T01:26:32.668Z,11.90
2018-12-22T01:29:00.915Z,11.80
2018-12-22T01:31:29.086Z,11.80
2018-12-22T01:33:57.361Z,11.80
2018-12-22T01:36:25.597Z,11.80
2018-12-22T01:38:53.923Z,11.80
2018-12-22T01:41:22.183Z,11.80
2018-12-22T01:43:50.456Z,11.70
2018-12-22T01:46:18.726Z,11.70
2018-12-22T01:48:46.818Z,11.70
2018-12-22T01:51:15.096Z,11.70
2018-12-22T01:53:43.373Z,11.70
2018-12-22T01:56:11.529Z,11.70
2018-12-22T01:58:47.614Z,11.70
2018-12-22T02:01:10.150Z,11.70
2018-12-22T02:03:38.190Z,11.70
2018-12-22T02:06:06.486Z,11.70
2018-12-22T02:08:34.862Z,11.80
2018-12-22T02:11:03.214Z,11.80
2018-12-22T02:13:31.410Z,11.80
2018-12-22T02:15:59.617Z,11.80
2018-12-22T02:18:27.973Z,11.80
2018-12-22T02:20:56.282Z,11.80
2018-12-22T02:23:24.836Z,11.80
2018-12-22T02:25:53.005Z,11.80
2018-12-22T02:28:21.310Z,11.90
2018-12-22T02:30:49.551Z,11.90
2018-12-22T02:33:17.749Z,11.90
2018-12-22T02:35:46.021Z,11.90
2018-12-22T02:38:14.184Z,11.80
2018-12-22T02:40:42.576Z,11.80
2018-12-22T02:43:10.843Z,11.70
2018-12-22T02:45:39.036Z,11.70
2018-12-22T02:48:07.482Z,11.70
2018-12-22T02:50:35.647Z,11.70
2018-12-22T02:53:03.861Z,11.60
2018-12-22T02:55:32.217Z,11.70
2018-12-22T02:58:00.323Z,11.60
2018-12-22T03:00:28.460Z,11.70
2018-12-22T03:02:57.888Z,11.70
2018-12-22T03:05:26.146Z,11.70
2018-12-22T03:07:54.446Z,11.70
2018-12-22T03:10:22.818Z,11.70
2018-12-22T03:12:51.241Z,11.70
2018-12-22T03:15:19.807Z,11.70
2018-12-22T03:17:48.077Z,11.70
2018-12-22T03:20:16.230Z,11.70
2018-12-22T03:22:44.520Z,11.80
2018-12-22T03:25:12.778Z,11.80
2018-12-22T03:27:41.174Z,11.80
2018-12-22T03:30:09.560Z,11.70
2018-12-22T03:32:37.685Z,11.70
2018-12-22T03:35:06.201Z,11.70
2018-12-22T03:37:34.479Z,11.80
2018-12-22T03:40:02.657Z,11.70
2018-12-22T03:42:30.827Z,11.70
2018-12-22T03:44:59.084Z,11.70
2018-12-22T03:47:28.476Z,11.70
2018-12-22T03:49:56.918Z,11.70
2018-12-22T03:52:25.150Z,11.70
2018-12-22T03:54:53.455Z,11.60
2018-12-22T03:57:21.594Z,11.60
2018-12-22T03:59:49.898Z,11.60
2018-12-22T04:02:17.995Z,11.60
2018-12-22T04:04:46.251Z,11.50
2018-12-22T04:07:14.402Z,11.50
2018-12-22T04:09:42.610Z,11.50
2018-12-22T04:12:10.743Z,11.40
2018-12-22T04:14:39.157Z,11.40
2018-12-22T04:17:07.433Z,11.30
2018-12-22T04:19:35.731Z,11.30
2018-12-22T04:22:04.162Z,11.20
2018-12-22T04:24:32.675Z,11.20
2018-12-22T04:27:00.955Z,11.30
2018-12-22T04:29:33.852Z,11.30
2018-12-22T04:31:59.515Z,11.20
2018-12-22T04:34:27.585Z,11.30
2018-12-22T04:36:55.908Z,11.30
2018-12-22T04:39:24.152Z,11.30
2018-12-22T04:41:52.306Z,11.30
2018-12-22T04:44:20.516Z,11.30
2018-12-22T04:46:48.954Z,11.30
2018-12-22T04:49:17.268Z,11.30
2018-12-22T04:51:45.548Z,11.30
2018-12-22T04:54:13.708Z,11.30
2018-12-22T04:56:41.993Z,11.30
2018-12-22T04:59:10.356Z,11.40
2018-12-22T05:01:39.568Z,11.40
2018-12-22T05:04:07.833Z,11.40
2018-12-22T05:06:36.123Z,11.50
2018-12-22T05:09:06.001Z,11.50
2018-12-22T05:11:34.420Z,11.50
2018-12-22T05:14:02.901Z,11.50
2018-12-22T05:16:31.066Z,11.50
2018-12-22T05:18:59.245Z,11.50
2018-12-22T05:21:27.431Z,11.50
2018-12-22T05:23:55.682Z,11.60
2018-12-22T05:26:23.876Z,11.60
2018-12-22T05:28:52.131Z,11.60
2018-12-22T05:31:20.344Z,11.60
2018-12-22T05:33:48.478Z,11.60
2018-12-22T05:36:16.784Z,11.70
2018-12-22T05:38:45.060Z,11.70
2018-12-22T05:41:13.239Z,11.60
2018-12-22T05:43:41.493Z,11.70
2018-12-22T05:46:09.883Z,11.70
2018-12-22T05:48:38.051Z,11.70
2018-12-22T05:51:06.187Z,11.70
2018-12-22T05:53:34.532Z,11.80
2018-12-22T05:56:02.763Z,11.70
2018-12-22T05:58:30.852Z,11.70
2018-12-22T06:00:59.136Z,11.70
2018-12-22T06:03:27.510Z,11.70
2018-12-22T06:05:55.627Z,11.70
2018-12-22T06:08:23.756Z,11.70
2018-12-22T06:10:51.912Z,11.70
2018-12-22T06:13:20.299Z,11.80
2018-12-22T06:15:48.546Z,11.80
2018-12-22T06:18:16.655Z,11.80
2018-12-22T06:20:45.045Z,11.80
2018-12-22T06:23:13.432Z,11.80
2018-12-22T06:25:41.919Z,11.80
2018-12-22T06:28:10.461Z,11.80
2018-12-22T06:30:38.547Z,11.80
2018-12-22T06:33:06.555Z,11.70
2018-12-22T06:35:35.033Z,11.60
2018-12-22T06:38:03.301Z,11.60
2018-12-22T06:40:31.729Z,11.50
2018-12-22T06:43:00.061Z,11.50
2018-12-22T06:45:28.434Z,11.40
2018-12-22T06:47:56.791Z,11.40
2018-12-22T06:50:25.042Z,11.30
2018-12-22T06:52:53.116Z,11.30
2018-12-22T06:55:21.327Z,11.30
2018-12-22T06:57:49.642Z,11.20
2018-12-22T07:00:18.043Z,11.20
2018-12-22T07:02:46.371Z,11.20
2018-12-22T07:05:14.516Z,11.10
2018-12-22T07:07:42.719Z,11.10
2018-12-22T07:10:10.911Z,11.00
2018-12-22T07:12:39.072Z,11.00
2018-12-22T07:15:07.745Z,11.00
2018-12-22T07:17:36.085Z,11.00
2018-12-22T07:20:04.820Z,11.00
2018-12-22T07:22:33.084Z,11.10
2018-12-22T07:25:01.479Z,11.00
2018-12-22T07:27:29.940Z,11.00
2018-12-22T07:29:58.207Z,11.00
2018-12-22T07:32:26.429Z,11.00
2018-12-22T07:34:54.894Z,11.00
2018-12-22T07:37:23.231Z,11.00
2018-12-22T07:39:51.459Z,11.00
2018-12-22T07:42:20.839Z,11.00
2018-12-22T07:44:49.208Z,11.00
2018-12-22T07:47:17.698Z,11.00
2018-12-22T07:49:45.880Z,11.00
2018-12-22T07:52:14.135Z,10.80
2018-12-22T07:54:43.767Z,10.80
2018-12-22T07:57:12.268Z,10.70
2018-12-22T07:59:40.789Z,10.60
2018-12-22T08:02:09.184Z,10.50
2018-12-22T08:04:37.265Z,10.50
2018-12-22T08:07:05.645Z,10.40
2018-12-22T08:09:34.240Z,10.40
2018-12-22T08:12:02.415Z,10.40
2018-12-22T08:14:30.617Z,10.30
2018-12-22T08:16:58.848Z,10.30
2018-12-22T08:19:27.134Z,10.30
2018-12-22T08:21:55.510Z,10.40
2018-12-22T08:24:23.855Z,10.40
2018-12-22T08:26:52.307Z,10.40
2018-12-22T08:29:20.480Z,10.40
2018-12-22T08:31:48.620Z,10.50
2018-12-22T08:34:16.979Z,10.50
2018-12-22T08:36:45.440Z,10.60
2018-12-22T08:39:13.626Z,10.60
2018-12-22T08:41:41.930Z,10.60
2018-12-22T08:44:11.441Z,10.70
2018-12-22T08:46:39.723Z,10.70
2018-12-22T08:49:09.236Z,10.70
2018-12-22T08:51:37.755Z,10.70
2018-12-22T08:54:05.940Z,10.80
2018-12-22T08:56:34.367Z,10.80
2018-12-22T08:59:02.704Z,10.80
2018-12-22T09:01:31.085Z,10.90
2018-12-22T09:03:59.389Z,10.90
2018-12-22T09:06:27.791Z,11.00
2018-12-22T09:08:55.983Z,11.10
2018-12-22T09:11:24.019Z,11.20
2018-12-22T09:13:52.158Z,11.30
2018-12-22T09:16:20.688Z,11.40
2018-12-22T09:18:49.958Z,11.40
2018-12-22T09:21:18.191Z,11.50
2018-12-22T09:23:46.431Z,11.50
2018-12-22T09:26:14.769Z,11.50
2018-12-22T09:28:43.111Z,11.60
2018-12-22T09:31:11.429Z,11.60
2018-12-22T09:33:40.422Z,11.60
2018-12-22T09:36:08.636Z,11.50
2018-12-22T09:38:36.731Z,11.50
2018-12-22T09:41:04.758Z,11.40
2018-12-22T09:43:32.755Z,11.40
2018-12-22T09:46:01.140Z,11.40
2018-12-22T09:48:29.161Z,11.40
2018-12-22T09:50:57.141Z,11.40
2018-12-22T09:53:25.203Z,11.40
2018-12-22T09:55:54.132Z,11.30
2018-12-22T09:58:22.300Z,11.30
2018-12-22T10:00:51.949Z,11.30
2018-12-22T10:03:20.217Z,11.30
2018-12-22T10:05:48.769Z,11.20
2018-12-22T10:08:17.085Z,11.20
2018-12-22T10:10:45.758Z,11.30
2018-12-22T10:13:14.032Z,11.30
2018-12-22T10:15:42.305Z,11.30
2018-12-22T10:18:10.459Z,11.30
2018-12-22T10:20:40.105Z,11.30
2018-12-22T10:23:08.510Z,11.30
2018-12-22T10:25:36.813Z,11.30
2018-12-22T10:28:04.992Z,11.30
2018-12-22T10:30:33.710Z,11.30
2018-12-22T10:33:01.822Z,11.30
2018-12-22T10:35:31.156Z,11.40
2018-12-22T10:37:59.149Z,11.40
2018-12-22T10:40:27.212Z,11.40
2018-12-22T10:42:55.304Z,11.40
2018-12-22T10:45:23.356Z,11.50
2018-12-22T10:47:51.691Z,11.50
2018-12-22T10:50:20.062Z,11.50
2018-12-22T10:52:48.846Z,11.60
2018-12-22T10:55:17.044Z,11.60
2018-12-22T10:57:45.109Z,11.60
2018-12-22T11:00:15.474Z,11.60
2018-12-22T11:02:44.276Z,11.70
2018-12-22T11:05:14.848Z,11.80
2018-12-22T11:07:42.942Z,11.90
2018-12-22T11:10:19.734Z,11.90
2018-12-22T11:12:49.120Z,12.00
2018-12-22T11:15:17.329Z,12.10
2018-12-22T11:17:45.602Z,12.10
2018-12-22T11:20:13.865Z,12.10
2018-12-22T11:22:42.304Z,12.10
2018-12-22T11:25:15.119Z,12.00
2018-12-22T11:27:43.243Z,12.00
2018-12-22T11:30:17.994Z,11.90
2018-12-22T11:32:46.253Z,11.80
2018-12-22T11:35:14.765Z,11.80
2018-12-22T11:37:43.111Z,11.80
2018-12-22T11:40:11.570Z,11.70
2018-12-22T11:42:47.377Z,11.70
2018-12-22T11:45:10.381Z,11.70
2018-12-22T11:47:43.161Z,11.70
2018-12-22T11:50:16.264Z,11.60
2018-12-22T11:52:44.834Z,11.60
2018-12-22T11:55:13.108Z,11.50
2018-12-22T11:57:41.389Z,11.40
2018-12-22T12:00:10.796Z,11.40
2018-12-22T12:02:39.480Z,11.20
2018-12-22T12:05:09.551Z,11.20
2018-12-22T12:07:37.859Z,11.20
2018-12-22T12:10:08.485Z,11.30
2018-12-22T12:12:36.791Z,11.40
2018-12-22T12:15:09.767Z,11.40
2018-12-22T12:17:50.555Z,11.50
2018-12-22T12:20:18.848Z,11.60
2018-12-22T12:22:47.252Z,11.70
2018-12-22T12:25:15.465Z,11.70
2018-12-22T12:27:43.734Z,11.60
2018-12-22T12:30:12.072Z,11.60
2018-12-22T12:32:41.632Z,11.50
2018-12-22T12:35:10.024Z,11.60
2018-12-22T12:37:38.477Z,11.60
2018-12-22T12:40:12.144Z,11.70
2018-12-22T12:42:40.251Z,11.70
2018-12-22T12:45:11.751Z,11.70
2018-12-22T12:47:40.307Z,11.80
2018-12-22T12:50:10.925Z,11.70
2018-12-22T12:52:39.092Z,11.70
2018-12-22T12:55:08.339Z,11.80
2018-12-22T12:57:42.601Z,11.80
2018-12-22T13:00:24.409Z,11.80
2018-12-22T13:02:54.875Z,11.80
2018-12-22T13:05:24.348Z,11.70
2018-12-22T13:07:59.909Z,11.60
2018-12-22T13:10:28.227Z,11.60
2018-12-22T13:13:13.193Z,11.50
2018-12-22T13:15:41.779Z,11.40
2018-12-22T13:18:09.960Z,11.40
2018-12-22T13:20:38.422Z,11.30
2018-12-22T13:23:06.809Z,11.20
2018-12-22T13:25:35.180Z,11.10
2018-12-22T13:28:03.496Z,11.00
2018-12-22T13:30:31.679Z,11.00
2018-12-22T13:33:00.190Z,10.90
2018-12-22T13:35:28.709Z,10.90
2018-12-22T13:37:57.068Z,10.80
2018-12-22T13:40:25.258Z,10.70
2018-12-22T13:42:53.582Z,10.70
2018-12-22T13:45:22.102Z,10.60
2018-12-22T13:47:52.370Z,10.50
2018-12-22T13:50:21.039Z,10.40
2018-12-22T13:52:49.416Z,10.40
2018-12-22T13:55:17.784Z,10.40
2018-12-22T13:57:46.197Z,10.40
2018-12-22T14:00:14.761Z,10.30
2018-12-22T14:02:43.026Z,10.30
2018-12-22T14:05:14.268Z,10.30
2018-12-22T14:07:42.588Z,10.30
2018-12-22T14:10:11.123Z,10.30
2018-12-22T14:12:39.398Z,10.30
2018-12-22T14:15:11.228Z,10.30
2018-12-22T14:18:00.594Z,10.30
2018-12-22T14:20:30.172Z,10.30
2018-12-22T14:22:58.491Z,10.30
2018-12-22T14:25:28.981Z,10.40
2018-12-22T14:27:57.347Z,10.40
2018-12-22T14:30:25.733Z,10.40
2018-12-22T14:32:54.255Z,10.50
2018-12-22T14:35:36.239Z,10.50
2018-12-22T14:38:04.459Z,10.50
2018-12-22T14:40:33.044Z,10.60
2018-12-22T14:43:01.417Z,10.60
2018-12-22T14:45:29.714Z,10.60
2018-12-22T14:47:58.070Z,10.60
2018-12-22T14:50:26.373Z,10.60
2018-12-22T14:52:54.631Z,10.60
2018-12-22T14:55:23.555Z,10.60
2018-12-22T14:57:59.834Z,10.70
2018-12-22T15:00:28.372Z,10.70
2018-12-22T15:02:56.649Z,10.60
2018-12-22T15:05:25.052Z,10.60
2018-12-22T15:07:53.469Z,10.60
2018-12-22T15:10:21.793Z,10.60
2018-12-22T15:12:50.376Z,10.60
2018-12-22T15:15:18.664Z,10.60
2018-12-22T15:17:47.091Z,10.60
2018-12-22T15:20:17.256Z,10.60
2018-12-22T15:22:45.514Z,10.60
2018-12-22T15:25:13.808Z,10.60
2018-12-22T15:27:42.453Z,10.60
2018-12-22T15:30:12.609Z,10.60
2018-12-22T15:32:44.473Z,10.50
2018-12-22T15:35:11.107Z,10.50
2018-12-22T15:37:39.288Z,10.50
2018-12-22T15:40:08.227Z,10.50
2018-12-22T15:42:36.461Z,10.50
2018-12-22T15:45:06.717Z,10.50
2018-12-22T15:47:35.163Z,10.50
2018-12-22T15:50:03.750Z,10.50
2018-12-22T15:52:32.032Z,10.40
2018-12-22T15:55:00.454Z,10.40
2018-12-22T15:57:29.076Z,10.40
2018-12-22T15:59:57.356Z,10.40
2018-12-22T16:02:26.676Z,10.30
2018-12-22T16:04:55.064Z,10.30
2018-12-22T16:07:23.547Z,10.30
2018-12-22T16:09:51.795Z,10.20
2018-12-22T16:12:20.193Z,10.20
2018-12-22T16:14:48.235Z,10.20
2018-12-22T16:17:16.273Z,10.10
2018-12-22T16:19:44.510Z,10.10
2018-12-22T16:22:12.663Z,10.10
2018-12-22T16:24:41.106Z,10.10
2018-12-22T16:27:09.439Z,10.10
2018-12-22T16:29:40.626Z,10.00
2018-12-22T16:32:09.256Z,10.00
2018-12-22T16:34:37.742Z,10.10
2018-12-22T16:37:06.082Z,10.00
2018-12-22T16:39:36.813Z,10.10
2018-12-22T16:42:05.148Z,10.00
2018-12-22T16:44:33.603Z,10.00
2018-12-22T16:47:01.881Z,10.00
2018-12-22T16:49:30.286Z,10.00
2018-12-22T16:51:58.545Z,10.10
2018-12-22T16:54:26.825Z,10.10
2018-12-22T16:56:55.001Z,10.10
2018-12-22T16:59:23.328Z,10.10
2018-12-22T17:01:59.694Z,10.10
2018-12-22T17:04:28.008Z,10.10
2018-12-22T17:06:56.302Z,10.10
2018-12-22T17:09:24.684Z,10.10
2018-12-22T17:11:52.777Z,10.10
2018-12-22T17:14:21.109Z,10.10
2018-12-22T17:16:49.433Z,10.10
2018-12-22T17:19:17.920Z,10.10
2018-12-22T17:22:01.472Z,10.10
2018-12-22T17:24:42.545Z,10.10
2018-12-22T17:27:10.889Z,10.10
2018-12-22T17:29:39.306Z,10.10
2018-12-22T17:32:07.525Z,10.10
2018-12-22T17:34:36.034Z,10.10
2018-12-22T17:37:04.414Z,10.10
2018-12-22T17:39:36.628Z,10.10
2018-12-22T17:42:02.785Z,10.10
2018-12-22T17:44:30.948Z,10.10
2018-12-22T17:46:59.445Z,10.10
2018-12-22T17:49:27.933Z,10.10
2018-12-22T17:51:56.351Z,10.00
2018-12-22T17:54:25.097Z,10.00
2018-12-22T17:56:53.560Z,10.00
2018-12-22T17:59:22.948Z,10.00
2018-12-22T18:01:51.155Z,10.00
2018-12-22T18:04:20.268Z,10.00
2018-12-22T18:06:49.306Z,10.00
2018-12-22T18:09:17.617Z,10.00
2018-12-22T18:11:45.787Z,10.00
2018-12-22T18:14:14.291Z,10.00
2018-12-22T18:16:42.588Z,10.00
2018-12-22T18:19:10.976Z,10.00
2018-12-22T18:21:39.426Z,10.00
2018-12-22T18:24:07.906Z,10.00
2018-12-22T18:26:37.045Z,10.00
2018-12-22T18:29:05.616Z,10.00
2018-12-22T18:31:34.093Z,10.00
2018-12-22T18:34:02.797Z,10.00
2018-12-22T18:36:31.400Z,10.00
2018-12-22T18:38:59.669Z,10.00
2018-12-22T18:41:28.061Z,10.00
2018-12-22T18:43:56.124Z,10.00
2018-12-22T18:46:24.565Z,10.00
2018-12-22T18:48:53.258Z,10.00
2018-12-22T18:51:21.942Z,10.00
2018-12-22T18:53:50.534Z,10.10
2018-12-22T18:56:18.563Z,10.10
2018-12-22T18:58:46.642Z,10.10
2018-12-22T19:01:14.733Z,10.20
2018-12-22T19:03:44.911Z,10.20
2018-12-22T19:06:13.182Z,10.20
2018-12-22T19:08:41.791Z,10.10
2018-12-22T19:11:12.494Z,10.10
2018-12-22T19:13:40.929Z,10.10
2018-12-22T19:16:09.211Z,10.10
2018-12-22T19:18:37.484Z,10.10
2018-12-22T19:21:06.079Z,10.10
2018-12-22T19:23:35.564Z,10.10
2018-12-22T19:26:04.102Z,10.10
2018-12-22T19:28:32.451Z,10.10
2018-12-22T19:31:00.961Z,10.10
2018-12-22T19:33:30.670Z,10.10
2018-12-22T19:35:59.974Z,10.20
2018-12-22T19:38:28.506Z,10.10
2018-12-22T19:40:58.813Z,10.10
2018-12-22T19:43:27.943Z,10.10
2018-12-22T19:45:56.281Z,10.10
2018-12-22T19:48:24.745Z,10.10
2018-12-22T19:50:53.390Z,10.10
2018-12-22T19:53:21.979Z,10.20
2018-12-22T19:55:50.884Z,10.10
2018-12-22T19:58:19.275Z,10.10
2018-12-22T20:00:48.827Z,10.20
2018-12-22T20:03:17.364Z,10.20
2018-12-22T20:05:46.129Z,10.20
2018-12-22T20:08:15.655Z,10.10
2018-12-22T20:10:45.219Z,10.20
2018-12-22T20:13:13.898Z,10.20
2018-12-22T20:15:44.405Z,10.20
2018-12-22T20:18:12.973Z,10.10
2018-12-22T20:20:41.586Z,10.10
2018-12-22T20:23:10.718Z,10.10
2018-12-22T20:25:39.108Z,10.10
2018-12-22T20:28:07.724Z,10.00
2018-12-22T20:30:35.677Z,10.00
2018-12-22T20:33:04.933Z,10.00
2018-12-22T20:35:32.957Z,10.00
2018-12-22T20:38:00.937Z,9.90
2018-12-22T20:40:29.046Z,10.00
2018-12-22T20:42:57.124Z,9.90
2018-12-22T20:45:25.154Z,9.90
2018-12-22T20:47:53.113Z,9.90
2018-12-22T20:50:21.165Z,9.90
2018-12-22T20:52:49.166Z,9.90
2018-12-22T20:55:17.271Z,9.80
2018-12-22T20:57:45.274Z,9.80
2018-12-22T21:00:13.228Z,9.80
2018-12-22T21:02:41.333Z,9.80
2018-12-22T21:05:09.320Z,9.80
2018-12-22T21:07:37.323Z,9.80
2018-12-22T21:10:05.703Z,9.80
2018-12-22T21:12:33.701Z,9.80
2018-12-22T21:15:01.714Z,9.80
2018-12-22T21:17:29.777Z,9.80
2018-12-22T21:19:57.853Z,9.80
2018-12-22T21:22:25.883Z,9.80
2018-12-22T21:24:53.889Z,9.80
2018-12-22T21:27:21.898Z,9.80
2018-12-22T21:29:50.026Z,9.80
2018-12-22T21:32:18.038Z,9.80
2018-12-22T21:34:46.185Z,9.80
2018-12-22T21:37:14.229Z,9.80
2018-12-22T21:39:42.282Z,9.80
2018-12-22T21:42:10.301Z,9.80
2018-12-22T21:44:38.269Z,9.80
2018-12-22T21:47:06.239Z,9.80
2018-12-22T21:49:34.355Z,9.80
2018-12-22T21:52:02.380Z,9.80
2018-12-22T21:54:30.431Z,9.80
2018-12-22T21:56:58.486Z,9.80
2018-12-22T21:59:26.453Z,9.80
2018-12-22T22:01:54.529Z,9.70
2018-12-22T22:04:23.035Z,9.70
2018-12-22T22:06:51.103Z,9.60
2018-12-22T22:09:19.370Z,9.50
2018-12-22T22:11:48.582Z,9.50
2018-12-22T22:14:16.882Z,9.50
2018-12-22T22:16:44.976Z,9.50
2018-12-22T22:19:13.397Z,9.50
2018-12-22T22:21:41.595Z,9.50
2018-12-22T22:24:10.320Z,9.50
2018-12-22T22:26:38.329Z,9.60
2018-12-22T22:29:06.795Z,9.60
2018-12-22T22:31:35.961Z,9.60
2018-12-22T22:34:04.535Z,9.60
2018-12-22T22:36:32.611Z,9.70
2018-12-22T22:39:00.994Z,9.70
2018-12-22T22:41:29.619Z,9.70
2018-12-22T22:43:57.936Z,9.70
2018-12-22T22:46:26.975Z,9.60
2018-12-22T22:48:54.975Z,9.60
2018-12-22T22:51:23.541Z,9.60
2018-12-22T22:53:51.767Z,9.60
2018-12-22T22:56:20.007Z,9.60
2018-12-22T22:58:48.274Z,9.60
2018-12-22T23:01:16.723Z,9.50
2018-12-22T23:03:45.129Z,9.50
2018-12-22T23:06:13.379Z,9.50
2018-12-22T23:08:41.462Z,9.50
2018-12-22T23:11:09.874Z,9.50
2018-12-22T23:13:38.204Z,9.60
2018-12-22T23:16:06.234Z,9.60
2018-12-22T23:18:34.373Z,9.60
2018-12-22T23:21:02.928Z,9.50
2018-12-22T23:23:31.186Z,9.50
2018-12-22T23:26:00.409Z,9.40
2018-12-22T23:28:28.517Z,9.40
2018-12-22T23:30:57.044Z,9.40
2018-12-22T23:33:25.957Z,9.30
2018-12-22T23:35:54.053Z,9.30
2018-12-22T23:38:23.141Z,9.30
2018-12-22T23:40:51.508Z,9.30
2018-12-22T23:43:19.774Z,9.30
2018-12-22T23:45:48.018Z,9.20
2018-12-22T23:48:15.962Z,9.20
2018-12-22T23:50:44.006Z,9.20
2018-12-22T23:53:12.191Z,9.20
2018-12-22T23:55:40.417Z,9.10
2018-12-22T23:58:08.443Z,9.10
